Sierra City, California
Current Conditions -  °F | °C
As of 11:52 AM on Monday 26 Jan 2015 (Local Time) from KBLU Reporting Station
Clear Clear  
Wind Chill: 59°   Ceiling: Unl
Heat Index: 59°   Visibility: 10mi
Dew Point: 29°   Wind: 0mph
Humidity: 32%   Direction: NA
Pressure: 30.14"   Gusts: NA
Location:  39.57°N, 120.64°W
Report Text: KBLU 261952Z AUTO 00000KT 10SM CLR 15/M02 A3014 RMK AO2 SLP145 T01501017
Loading
Personal Weather Stations






























Interactive Weather Map New forecast layout! Learn more

10-Day Weather Forecast

Advertisements
Track Severe Weather on mobile